Time;durP1;ratioP1;P1;durP2;ratioP2;P2;SDS_P1;SDS_P2;PMS_P1;PMS_P2;Temp;Humidity;BMP_temperature;BMP_pressure;BME280_temperature;BME280_humidity;BME280_pressure;Samples;Min_cycle;Max_cycle;Signal;HPM_P1;HPM_P2
2023/04/16 00:02:23;;;;;;;72.35;24.17;;;;;;;;;;5037521;28;20084;-92
2023/04/16 00:04:49;;;;;;;68.80;23.98;;;;;;;;;;5019884;28;20055;-91
2023/04/16 00:07:15;;;;;;;67.93;24.83;;;;;;;;;;5019977;28;20045;-91
2023/04/16 00:09:41;;;;;;;77.95;27.10;;;;;;;;;;5019934;28;20132;-91
2023/04/16 00:12:07;;;;;;;74.40;25.08;;;;;;;;;;5036557;28;20055;-92
2023/04/16 00:14:33;;;;;;;61.03;26.00;;;;;;;;;;5020744;28;20045;-93
2023/04/16 00:16:59;;;;;;;74.50;25.55;;;;;;;;;;5036736;28;20044;-92
2023/04/16 00:19:25;;;;;;;54.88;21.85;;;;;;;;;;5036504;28;20048;-92
2023/04/16 00:21:51;;;;;;;77.47;24.15;;;;;;;;;;5036223;28;20043;-92
2023/04/16 00:24:17;;;;;;;65.18;24.25;;;;;;;;;;5018731;28;20045;-92
2023/04/16 00:26:45;;;;;;;71.68;24.58;;;;;;;;;;5035978;28;20037;-92
2023/04/16 00:29:14;;;;;;;68.88;24.63;;;;;;;;;;5036163;28;20512;-91
2023/04/16 00:31:40;;;;;;;61.95;25.08;;;;;;;;;;5035825;28;20045;-92
2023/04/16 00:34:06;;;;;;;66.38;23.42;;;;;;;;;;5019426;28;20493;-91
2023/04/16 00:36:32;;;;;;;60.17;24.05;;;;;;;;;;5035227;28;20057;-92
2023/04/16 00:38:58;;;;;;;60.70;21.13;;;;;;;;;;5035686;28;20408;-90
2023/04/16 00:41:25;;;;;;;50.53;21.83;;;;;;;;;;5035162;28;20120;-90
2023/04/16 00:43:52;;;;;;;73.03;23.45;;;;;;;;;;5019084;28;20053;-90
2023/04/16 00:46:22;;;;;;;68.38;22.45;;;;;;;;;;5035168;28;20041;-91
2023/04/16 00:48:50;;;;;;;83.90;23.92;;;;;;;;;;5035292;28;20128;-91
2023/04/16 00:51:16;;;;;;;52.45;22.58;;;;;;;;;;5019109;28;20051;-90
2023/04/16 00:53:43;;;;;;;71.32;23.45;;;;;;;;;;5018899;28;20044;-91
2023/04/16 00:56:09;;;;;;;66.50;23.70;;;;;;;;;;5018696;28;20099;-91
2023/04/16 00:58:35;;;;;;;63.40;21.77;;;;;;;;;;5019039;28;20040;-91
2023/04/16 01:01:01;;;;;;;64.22;22.08;;;;;;;;;;5035011;28;20124;-91
2023/04/16 01:03:47;;;;;;;54.22;21.83;;;;;;;;;;5034638;28;20052;-91
2023/04/16 01:06:13;;;;;;;51.47;22.70;;;;;;;;;;5034917;28;20448;-91
2023/04/16 01:08:39;;;;;;;58.58;23.17;;;;;;;;;;5034940;28;20040;-91
2023/04/16 01:11:06;;;;;;;71.43;24.23;;;;;;;;;;5051390;28;20075;-91
2023/04/16 01:13:41;;;;;;;53.10;23.17;;;;;;;;;;5018688;28;20044;-92
2023/04/16 01:16:07;;;;;;;46.72;22.08;;;;;;;;;;5034773;28;20045;-91
2023/04/16 01:18:34;;;;;;;58.22;24.63;;;;;;;;;;5034808;28;20513;-91
2023/04/16 01:21:00;;;;;;;56.83;21.17;;;;;;;;;;5018324;28;20490;-91
2023/04/16 01:23:26;;;;;;;64.30;23.08;;;;;;;;;;5034652;28;20048;-91
2023/04/16 01:25:52;;;;;;;58.78;22.83;;;;;;;;;;5035080;28;20051;-92
2023/04/16 01:28:18;;;;;;;63.00;23.00;;;;;;;;;;5034922;28;20044;-92
2023/04/16 01:30:44;;;;;;;45.85;20.23;;;;;;;;;;5018443;28;20053;-92
2023/04/16 01:33:11;;;;;;;57.90;22.73;;;;;;;;;;5034935;28;20049;-90
2023/04/16 01:35:37;;;;;;;59.47;23.48;;;;;;;;;;5034544;28;20045;-91
2023/04/16 01:38:03;;;;;;;55.85;22.85;;;;;;;;;;5034104;28;20049;-92
2023/04/16 01:40:30;;;;;;;68.78;23.20;;;;;;;;;;5034270;28;20135;-91
2023/04/16 01:42:56;;;;;;;60.90;23.35;;;;;;;;;;5034147;28;20076;-91
2023/04/16 01:45:22;;;;;;;63.40;23.65;;;;;;;;;;5034900;28;20049;-92
2023/04/16 01:47:51;;;;;;;54.95;22.38;;;;;;;;;;5034365;28;20127;-92
2023/04/16 01:50:18;;;;;;;61.38;23.38;;;;;;;;;;5034674;28;20049;-92
2023/04/16 01:52:44;;;;;;;69.07;25.85;;;;;;;;;;5034694;28;20595;-92
2023/04/16 01:55:11;;;;;;;63.88;24.80;;;;;;;;;;5034313;28;20052;-92
2023/04/16 01:57:37;;;;;;;70.47;25.35;;;;;;;;;;5034752;28;20045;-92
2023/04/16 02:00:03;;;;;;;78.15;26.83;;;;;;;;;;5034257;28;20049;-91
2023/04/16 02:02:33;;;;;;;68.10;25.92;;;;;;;;;;5034500;28;20043;-92
2023/04/16 02:04:59;;;;;;;60.90;25.73;;;;;;;;;;5018100;28;20045;-91
2023/04/16 02:07:26;;;;;;;64.53;24.55;;;;;;;;;;5034354;28;20045;-91
2023/04/16 02:09:52;;;;;;;56.50;23.38;;;;;;;;;;5017732;28;20056;-92
2023/04/16 02:12:18;;;;;;;56.05;21.88;;;;;;;;;;5034450;28;20045;-92
2023/04/16 02:14:44;;;;;;;60.55;25.00;;;;;;;;;;5034860;28;20412;-92
2023/04/16 02:17:11;;;;;;;60.70;24.70;;;;;;;;;;5018641;28;20458;-91
2023/04/16 02:19:37;;;;;;;62.65;24.13;;;;;;;;;;5034570;28;20048;-92
2023/04/16 02:22:03;;;;;;;79.55;24.35;;;;;;;;;;5034233;28;20494;-92
2023/04/16 02:24:29;;;;;;;57.90;23.25;;;;;;;;;;5034518;28;20449;-92
2023/04/16 02:26:55;;;;;;;83.85;25.33;;;;;;;;;;5034353;28;20041;-92
2023/04/16 02:29:22;;;;;;;71.90;25.65;;;;;;;;;;5017707;28;20047;-92
2023/04/16 02:31:48;;;;;;;59.50;24.35;;;;;;;;;;5034318;28;20041;-93
2023/04/16 02:34:14;;;;;;;60.47;24.67;;;;;;;;;;5018209;28;20098;-92
2023/04/16 02:36:40;;;;;;;76.15;27.73;;;;;;;;;;5017663;28;20068;-91
2023/04/16 02:39:06;;;;;;;69.35;27.05;;;;;;;;;;5034451;28;20147;-92
2023/04/16 02:41:32;;;;;;;74.85;24.60;;;;;;;;;;5017715;28;20513;-91
2023/04/16 02:43:59;;;;;;;69.43;25.38;;;;;;;;;;5017462;28;20528;-91
2023/04/16 02:46:25;;;;;;;82.72;25.08;;;;;;;;;;5034189;28;20438;-92
2023/04/16 02:48:53;;;;;;;82.63;24.63;;;;;;;;;;5037395;28;20047;-92
2023/04/16 02:51:20;;;;;;;75.40;23.80;;;;;;;;;;5037407;28;20041;-92
2023/04/16 02:53:46;;;;;;;74.72;24.77;;;;;;;;;;5037387;28;20048;-91
2023/04/16 02:56:12;;;;;;;66.82;24.70;;;;;;;;;;5037347;28;20118;-91
2023/04/16 02:58:38;;;;;;;75.30;25.60;;;;;;;;;;5037150;28;20048;-92
2023/04/16 03:01:04;;;;;;;80.68;24.42;;;;;;;;;;5037477;28;20033;-92
2023/04/16 03:03:31;;;;;;;64.00;23.35;;;;;;;;;;5037166;28;20040;-91
2023/04/16 03:05:57;;;;;;;77.90;25.38;;;;;;;;;;5020588;28;20045;-91
2023/04/16 03:08:23;;;;;;;75.63;25.27;;;;;;;;;;5020559;28;20084;-90
2023/04/16 03:10:49;;;;;;;69.68;24.30;;;;;;;;;;5020275;28;20079;-92
2023/04/16 03:13:15;;;;;;;74.85;23.42;;;;;;;;;;5020599;28;20048;-92
2023/04/16 03:15:41;;;;;;;71.07;21.58;;;;;;;;;;5037268;28;20041;-93
2023/04/16 03:18:07;;;;;;;63.92;23.25;;;;;;;;;;5036858;28;20052;-91
2023/04/16 03:20:33;;;;;;;64.18;23.20;;;;;;;;;;5020527;28;20041;-91
2023/04/16 03:22:59;;;;;;;77.50;24.10;;;;;;;;;;5020232;28;20041;-90
2023/04/16 03:25:25;;;;;;;70.75;22.33;;;;;;;;;;5019867;28;20049;-91
2023/04/16 03:27:51;;;;;;;70.97;24.77;;;;;;;;;;5036704;28;20136;-91
2023/04/16 03:30:17;;;;;;;68.35;23.63;;;;;;;;;;5053248;28;20049;-91
2023/04/16 03:32:43;;;;;;;76.15;24.60;;;;;;;;;;5020336;28;20512;-91
2023/04/16 03:35:10;;;;;;;64.28;22.60;;;;;;;;;;5036508;28;20181;-91
2023/04/16 03:37:36;;;;;;;66.95;23.45;;;;;;;;;;5019557;28;20064;-90
2023/04/16 03:40:06;;;;;;;52.15;20.90;;;;;;;;;;5036288;28;20045;-90
2023/04/16 03:42:35;;;;;;;53.22;20.88;;;;;;;;;;5019855;28;20051;-91
2023/04/16 03:45:04;;;;;;;61.63;22.25;;;;;;;;;;5036376;28;20047;-91
2023/04/16 03:47:30;;;;;;;54.05;20.40;;;;;;;;;;5036247;28;20037;-91
2023/04/16 03:49:56;;;;;;;70.55;21.15;;;;;;;;;;5019989;28;20049;-91
2023/04/16 03:52:22;;;;;;;57.42;21.60;;;;;;;;;;5036231;28;20080;-91
2023/04/16 03:54:48;;;;;;;64.80;21.63;;;;;;;;;;5035986;28;20043;-91
2023/04/16 03:57:14;;;;;;;63.42;21.85;;;;;;;;;;5019866;28;20041;-91
2023/04/16 03:59:40;;;;;;;75.10;23.85;;;;;;;;;;5019732;28;20386;-91
2023/04/16 04:02:06;;;;;;;74.80;21.50;;;;;;;;;;5035914;28;20041;-91
2023/04/16 04:04:32;;;;;;;65.60;21.73;;;;;;;;;;5035689;28;20049;-90
2023/04/16 04:06:58;;;;;;;68.53;21.65;;;;;;;;;;5019460;28;20037;-91
2023/04/16 04:09:24;;;;;;;75.47;20.55;;;;;;;;;;5036227;28;20048;-91
2023/04/16 04:11:50;;;;;;;70.75;22.75;;;;;;;;;;5036716;28;20179;-91
2023/04/16 04:14:16;;;;;;;68.80;24.02;;;;;;;;;;5035884;28;20048;-91
2023/04/16 04:16:43;;;;;;;70.55;20.25;;;;;;;;;;5035587;28;20108;-91
2023/04/16 04:19:09;;;;;;;61.63;21.20;;;;;;;;;;5019320;28;20136;-91
2023/04/16 04:21:35;;;;;;;57.75;20.67;;;;;;;;;;5035427;28;20076;-91
2023/04/16 04:24:01;;;;;;;65.07;19.60;;;;;;;;;;5052200;28;20103;-91
2023/04/16 04:26:27;;;;;;;53.40;18.77;;;;;;;;;;5019140;28;20055;-91
2023/04/16 04:28:53;;;;;;;61.40;21.25;;;;;;;;;;5019311;28;20048;-92
2023/04/16 04:31:19;;;;;;;63.50;19.95;;;;;;;;;;5018980;28;20085;-91
2023/04/16 04:33:46;;;;;;;51.97;20.13;;;;;;;;;;5035303;28;20064;-92
2023/04/16 04:36:12;;;;;;;60.80;18.92;;;;;;;;;;5037015;28;20045;-92
2023/04/16 04:38:38;;;;;;;57.83;20.15;;;;;;;;;;5022217;28;20053;-91
2023/04/16 04:41:04;;;;;;;52.17;20.15;;;;;;;;;;5022133;28;20506;-91
2023/04/16 04:43:30;;;;;;;61.28;18.48;;;;;;;;;;5038849;28;20036;-91
2023/04/16 04:45:56;;;;;;;49.88;19.48;;;;;;;;;;5038424;28;20056;-91
2023/04/16 04:48:25;;;;;;;51.78;18.90;;;;;;;;;;5038904;28;20442;-91
2023/04/16 04:50:52;;;;;;;56.55;20.52;;;;;;;;;;5039064;28;20135;-92
2023/04/16 04:53:18;;;;;;;57.75;19.30;;;;;;;;;;5038193;28;20498;-92
2023/04/16 04:55:44;;;;;;;59.53;19.98;;;;;;;;;;5038840;28;20048;-92
2023/04/16 04:58:10;;;;;;;61.72;19.70;;;;;;;;;;5022459;28;20493;-93
2023/04/16 05:00:36;;;;;;;76.80;21.55;;;;;;;;;;5038693;28;20098;-91
2023/04/16 05:03:03;;;;;;;74.63;21.02;;;;;;;;;;5022226;28;20153;-92
2023/04/16 05:05:29;;;;;;;75.55;20.92;;;;;;;;;;5038039;28;20056;-91
2023/04/16 05:07:55;;;;;;;73.50;19.25;;;;;;;;;;5038186;28;20139;-90
2023/04/16 05:10:21;;;;;;;69.53;19.95;;;;;;;;;;5021103;28;20417;-91
2023/04/16 05:12:48;;;;;;;52.45;18.05;;;;;;;;;;5038133;28;20044;-91
2023/04/16 05:15:14;;;;;;;54.42;19.58;;;;;;;;;;5021960;28;20051;-91
2023/04/16 05:17:40;;;;;;;57.53;21.60;;;;;;;;;;5037956;28;20044;-91
2023/04/16 05:20:07;;;;;;;81.32;20.55;;;;;;;;;;5038261;28;20040;-91
2023/04/16 05:22:33;;;;;;;62.97;20.20;;;;;;;;;;5037880;28;20055;-91
2023/04/16 05:24:59;;;;;;;55.28;21.27;;;;;;;;;;5037795;28;20044;-92
2023/04/16 05:27:25;;;;;;;63.05;20.20;;;;;;;;;;5038146;28;20041;-91
2023/04/16 05:29:51;;;;;;;62.65;20.60;;;;;;;;;;5037738;28;20052;-91
2023/04/16 05:32:17;;;;;;;64.82;19.30;;;;;;;;;;5021320;28;20048;-89
2023/04/16 05:34:43;;;;;;;57.08;18.83;;;;;;;;;;5054782;28;20060;-91
2023/04/16 05:37:10;;;;;;;60.13;19.75;;;;;;;;;;5054383;28;20110;-91
2023/04/16 05:39:36;;;;;;;56.15;20.80;;;;;;;;;;5037631;28;20504;-91
2023/04/16 05:42:05;;;;;;;55.03;18.40;;;;;;;;;;5038153;28;20041;-91
2023/04/16 05:44:34;;;;;;;51.78;18.95;;;;;;;;;;5020916;28;20490;-91
2023/04/16 05:47:00;;;;;;;58.20;18.48;;;;;;;;;;5037715;28;20037;-91
2023/04/16 05:49:26;;;;;;;50.83;18.13;;;;;;;;;;5037993;28;20044;-91
2023/04/16 05:51:52;;;;;;;54.17;17.40;;;;;;;;;;5037569;28;20044;-91
2023/04/16 05:54:18;;;;;;;73.22;19.15;;;;;;;;;;5037827;28;20159;-92
2023/04/16 05:56:44;;;;;;;56.65;18.35;;;;;;;;;;5021491;28;20032;-92
2023/04/16 05:59:10;;;;;;;43.92;17.55;;;;;;;;;;5021255;28;20097;-92
2023/04/16 06:01:36;;;;;;;57.83;17.63;;;;;;;;;;5037616;28;20044;-92
2023/04/16 06:04:02;;;;;;;51.80;18.73;;;;;;;;;;5021187;28;20067;-93
2023/04/16 06:06:29;;;;;;;59.88;18.23;;;;;;;;;;5021248;28;20171;-92
2023/04/16 06:08:55;;;;;;;54.75;19.85;;;;;;;;;;5037689;28;20105;-92
2023/04/16 06:11:21;;;;;;;60.75;18.48;;;;;;;;;;5021348;28;20499;-93
2023/04/16 06:13:47;;;;;;;53.13;18.73;;;;;;;;;;5021585;28;20489;-92
2023/04/16 06:16:13;;;;;;;54.72;19.75;;;;;;;;;;5037659;28;20036;-92
2023/04/16 06:18:39;;;;;;;55.83;19.02;;;;;;;;;;5037531;28;20048;-92
2023/04/16 06:21:05;;;;;;;56.25;18.25;;;;;;;;;;5037498;28;20047;-92
2023/04/16 06:23:32;;;;;;;51.95;18.70;;;;;;;;;;5057178;28;20047;-92
2023/04/16 06:25:58;;;;;;;40.60;17.88;;;;;;;;;;5041321;28;20040;-92
2023/04/16 06:28:24;;;;;;;52.05;18.02;;;;;;;;;;5041178;28;20044;-90
2023/04/16 06:30:50;;;;;;;48.55;18.83;;;;;;;;;;5041177;28;20091;-92
2023/04/16 06:33:16;;;;;;;48.17;16.73;;;;;;;;;;5024105;28;20040;-91
2023/04/16 06:35:42;;;;;;;49.75;19.20;;;;;;;;;;5024502;28;20044;-92
2023/04/16 06:38:08;;;;;;;54.50;19.20;;;;;;;;;;5040882;28;20060;-92
2023/04/16 06:40:36;;;;;;;54.13;18.15;;;;;;;;;;5040867;28;20451;-90
2023/04/16 06:43:02;;;;;;;46.70;19.02;;;;;;;;;;5041255;28;20393;-90
2023/04/16 06:45:28;;;;;;;48.28;18.20;;;;;;;;;;5040692;28;20131;-91
2023/04/16 06:47:55;;;;;;;51.53;19.83;;;;;;;;;;5057541;28;20051;-90
2023/04/16 06:50:22;;;;;;;49.90;19.58;;;;;;;;;;5040801;28;20097;-91
2023/04/16 06:52:48;;;;;;;47.75;17.38;;;;;;;;;;5024349;28;20519;-90
2023/04/16 06:55:14;;;;;;;47.15;18.60;;;;;;;;;;5040527;28;20046;-89
2023/04/16 06:57:40;;;;;;;63.00;19.13;;;;;;;;;;5023935;28;20045;-90
2023/04/16 07:00:06;;;;;;;42.35;18.20;;;;;;;;;;5040694;28;20055;-91
2023/04/16 07:02:36;;;;;;;47.35;18.20;;;;;;;;;;5057023;28;20037;-90
2023/04/16 07:05:05;;;;;;;44.28;16.95;;;;;;;;;;5024631;28;20049;-90
2023/04/16 07:07:31;;;;;;;42.65;16.95;;;;;;;;;;5041050;28;20062;-92
2023/04/16 07:09:58;;;;;;;36.13;19.38;;;;;;;;;;5056800;28;20045;-90
2023/04/16 07:12:24;;;;;;;39.72;17.35;;;;;;;;;;5023999;28;20571;-90
2023/04/16 07:14:50;;;;;;;48.92;17.85;;;;;;;;;;5040195;28;20424;-90
2023/04/16 07:17:16;;;;;;;48.42;16.67;;;;;;;;;;5040115;28;20044;-90
2023/04/16 07:19:42;;;;;;;47.67;19.83;;;;;;;;;;5023731;28;20047;-89
2023/04/16 07:22:09;;;;;;;44.33;19.10;;;;;;;;;;5023798;28;20119;-90
2023/04/16 07:24:35;;;;;;;45.72;18.88;;;;;;;;;;5023508;28;20048;-91
2023/04/16 07:27:04;;;;;;;45.83;17.67;;;;;;;;;;5040312;28;20037;-90
2023/04/16 07:29:30;;;;;;;49.53;18.88;;;;;;;;;;5040173;28;20057;-91
2023/04/16 07:31:56;;;;;;;39.88;17.35;;;;;;;;;;5023647;28;20200;-90
2023/04/16 07:34:23;;;;;;;38.10;17.27;;;;;;;;;;5023078;28;20044;-91
2023/04/16 07:36:49;;;;;;;50.40;18.58;;;;;;;;;;5036572;28;20139;-91
2023/04/16 07:39:15;;;;;;;45.75;17.38;;;;;;;;;;5019694;28;20048;-91
2023/04/16 07:41:41;;;;;;;50.13;19.45;;;;;;;;;;5036166;28;20516;-91
2023/04/16 07:44:07;;;;;;;39.20;16.65;;;;;;;;;;5035993;28;20087;-91
2023/04/16 07:46:33;;;;;;;50.25;18.13;;;;;;;;;;5019945;28;20044;-91
2023/04/16 07:49:00;;;;;;;43.20;18.23;;;;;;;;;;5019666;28;20051;-91
2023/04/16 07:51:26;;;;;;;39.85;17.80;;;;;;;;;;5036128;28;20086;-91
2023/04/16 07:53:52;;;;;;;40.30;15.98;;;;;;;;;;5019876;28;20453;-90
2023/04/16 07:56:18;;;;;;;35.80;15.73;;;;;;;;;;5035889;28;20045;-91
2023/04/16 07:58:44;;;;;;;40.85;15.55;;;;;;;;;;5036314;28;20460;-91
2023/04/16 08:01:10;;;;;;;32.65;16.35;;;;;;;;;;5019437;28;20048;-89
2023/04/16 08:03:36;;;;;;;35.85;15.95;;;;;;;;;;5035657;28;20528;-90
2023/04/16 08:06:02;;;;;;;36.95;17.60;;;;;;;;;;5019977;28;20057;-91
2023/04/16 08:08:29;;;;;;;40.47;16.17;;;;;;;;;;5036023;28;20037;-91
2023/04/16 08:10:55;;;;;;;31.20;15.13;;;;;;;;;;5035930;28;20080;-92
2023/04/16 08:13:24;;;;;;;37.83;16.38;;;;;;;;;;5035680;28;20496;-91
2023/04/16 08:15:50;;;;;;;41.08;16.05;;;;;;;;;;5051855;28;20044;-90
2023/04/16 08:18:16;;;;;;;35.67;17.05;;;;;;;;;;5035606;28;20505;-90
2023/04/16 08:20:42;;;;;;;39.60;15.98;;;;;;;;;;5035584;28;20082;-90
2023/04/16 08:23:09;;;;;;;36.33;17.77;;;;;;;;;;5019275;28;20036;-90
2023/04/16 08:25:35;;;;;;;34.15;16.55;;;;;;;;;;5035709;28;20064;-91
2023/04/16 08:28:04;;;;;;;32.00;17.20;;;;;;;;;;5019058;28;20045;-91
2023/04/16 08:30:30;;;;;;;38.08;16.33;;;;;;;;;;5035813;28;20048;-91
2023/04/16 08:32:56;;;;;;;35.33;16.05;;;;;;;;;;5019672;28;20049;-91
2023/04/16 08:35:22;;;;;;;41.13;14.90;;;;;;;;;;5035284;28;20481;-91
2023/04/16 08:37:48;;;;;;;27.13;14.70;;;;;;;;;;5019007;28;20061;-91
2023/04/16 08:40:14;;;;;;;43.55;16.27;;;;;;;;;;5035065;28;20045;-90
2023/04/16 08:42:45;;;;;;;36.08;16.60;;;;;;;;;;5035440;28;20049;-90
2023/04/16 08:45:16;;;;;;;25.90;15.38;;;;;;;;;;5034422;28;20048;-90
2023/04/16 08:47:46;;;;;;;44.05;16.77;;;;;;;;;;5034876;28;20052;-91
2023/04/16 08:50:14;;;;;;;53.40;16.77;;;;;;;;;;5035090;28;20070;-91
2023/04/16 08:52:45;;;;;;;25.25;16.05;;;;;;;;;;5035317;28;20057;-90
2023/04/16 08:55:16;;;;;;;30.42;16.73;;;;;;;;;;5035014;28;20445;-91
2023/04/16 08:57:47;;;;;;;38.42;16.60;;;;;;;;;;5051423;28;20053;-90
2023/04/16 09:00:13;;;;;;;34.40;15.77;;;;;;;;;;5035089;28;20040;-91
2023/04/16 09:02:40;;;;;;;33.97;15.68;;;;;;;;;;5051679;28;20052;-90
2023/04/16 09:05:07;;;;;;;38.92;15.88;;;;;;;;;;5018319;28;20045;-90
2023/04/16 09:07:34;;;;;;;29.83;16.00;;;;;;;;;;5034778;28;20089;-90
2023/04/16 09:10:00;;;;;;;28.48;16.08;;;;;;;;;;5034574;28;20041;-91
2023/04/16 09:12:26;;;;;;;32.63;14.40;;;;;;;;;;5034521;28;20454;-91
2023/04/16 09:14:52;;;;;;;45.17;17.58;;;;;;;;;;5034536;28;20045;-91
2023/04/16 09:17:19;;;;;;;34.08;15.70;;;;;;;;;;5034734;28;20059;-89
2023/04/16 09:19:45;;;;;;;43.83;16.70;;;;;;;;;;5018069;28;20041;-90
2023/04/16 09:22:11;;;;;;;42.17;15.80;;;;;;;;;;5034194;28;20136;-89
2023/04/16 09:24:37;;;;;;;40.10;14.52;;;;;;;;;;5033088;28;20053;-90
2023/04/16 09:27:04;;;;;;;32.22;14.98;;;;;;;;;;5050594;28;20052;-89
2023/04/16 09:29:37;;;;;;;31.77;16.60;;;;;;;;;;5017947;28;20400;-90
2023/04/16 09:32:07;;;;;;;37.77;15.00;;;;;;;;;;5033963;28;20051;-89
2023/04/16 09:34:52;;;;;;;34.45;15.40;;;;;;;;;;5034320;28;20485;-89
2023/04/16 09:37:18;;;;;;;35.33;17.05;;;;;;;;;;5033913;28;20089;-89
2023/04/16 09:39:45;;;;;;;36.05;15.30;;;;;;;;;;5033839;28;20536;-90
2023/04/16 09:42:11;;;;;;;35.22;17.45;;;;;;;;;;5034717;28;20041;-89
2023/04/16 09:44:38;;;;;;;36.72;15.73;;;;;;;;;;5034100;28;20143;-90
2023/04/16 09:47:08;;;;;;;26.50;14.80;;;;;;;;;;5034267;28;20055;-89
2023/04/16 09:49:42;;;;;;;27.73;15.13;;;;;;;;;;5034095;28;20048;-90
2023/04/16 09:52:15;;;;;;;33.08;15.43;;;;;;;;;;5034573;28;20045;-89
2023/04/16 09:54:47;;;;;;;28.70;14.55;;;;;;;;;;5017789;28;20405;-90
2023/04/16 09:57:13;;;;;;;27.98;14.15;;;;;;;;;;5036711;28;20421;-89
2023/04/16 09:59:39;;;;;;;26.45;12.55;;;;;;;;;;5038555;28;20045;-89
2023/04/16 10:02:08;;;;;;;25.73;15.02;;;;;;;;;;5038676;28;20095;-90
2023/04/16 10:04:47;;;;;;;29.75;14.43;;;;;;;;;;5038030;28;20369;-90
2023/04/16 10:07:13;;;;;;;25.15;14.25;;;;;;;;;;5021605;28;20114;-89
2023/04/16 10:09:40;;;;;;;26.08;12.95;;;;;;;;;;5021496;28;20037;-89
2023/04/16 10:12:06;;;;;;;26.65;14.48;;;;;;;;;;5038303;28;20512;-89
2023/04/16 10:14:33;;;;;;;36.50;15.13;;;;;;;;;;5037686;28;20052;-89
2023/04/16 10:16:59;;;;;;;33.60;15.45;;;;;;;;;;5054108;28;20040;-89
2023/04/16 10:19:26;;;;;;;42.30;15.13;;;;;;;;;;5021281;28;20091;-90
2023/04/16 10:21:53;;;;;;;35.40;15.30;;;;;;;;;;5037742;28;20036;-89
2023/04/16 10:24:19;;;;;;;38.33;15.20;;;;;;;;;;5020229;28;20049;-91
2023/04/16 10:26:46;;;;;;;35.55;14.77;;;;;;;;;;5037238;28;20041;-90
2023/04/16 10:29:12;;;;;;;34.72;15.50;;;;;;;;;;5037367;28;20041;-90
2023/04/16 10:31:39;;;;;;;34.22;15.55;;;;;;;;;;5037369;28;20520;-90
2023/04/16 10:34:06;;;;;;;29.90;15.57;;;;;;;;;;5037470;28;20080;-91
2023/04/16 10:36:39;;;;;;;30.73;14.65;;;;;;;;;;5039292;28;20503;-91
2023/04/16 10:39:13;;;;;;;35.00;15.20;;;;;;;;;;5040320;28;20048;-90
2023/04/16 10:41:51;;;;;;;31.27;15.05;;;;;;;;;;5040820;28;20127;-90
2023/04/16 10:44:24;;;;;;;28.35;15.82;;;;;;;;;;5041304;28;20608;-90
2023/04/16 10:46:53;;;;;;;41.78;17.42;;;;;;;;;;5040930;28;20450;-89
2023/04/16 10:49:22;;;;;;;31.60;16.50;;;;;;;;;;5055884;28;20063;-90
2023/04/16 10:52:02;;;;;;;33.08;17.65;;;;;;;;;;5057925;28;20037;-90
2023/04/16 10:54:37;;;;;;;46.10;17.45;;;;;;;;;;5040636;28;20074;-90
2023/04/16 10:57:13;;;;;;;34.40;16.33;;;;;;;;;;5056454;28;20079;-91
2023/04/16 10:59:41;;;;;;;38.42;16.67;;;;;;;;;;5058063;28;20041;-90
2023/04/16 11:02:11;;;;;;;36.72;15.70;;;;;;;;;;5041149;28;20496;-89
2023/04/16 11:04:38;;;;;;;32.85;17.83;;;;;;;;;;5040822;28;20048;-89
2023/04/16 11:07:14;;;;;;;25.85;14.15;;;;;;;;;;5040831;28;20459;-90
2023/04/16 11:09:45;;;;;;;36.85;14.82;;;;;;;;;;5039956;28;20048;-89
2023/04/16 11:12:12;;;;;;;34.75;15.18;;;;;;;;;;5040718;28;20044;-90
2023/04/16 11:14:40;;;;;;;32.65;17.13;;;;;;;;;;5040447;28;20131;-89
2023/04/16 11:17:06;;;;;;;27.73;15.20;;;;;;;;;;5040909;28;20072;-90
2023/04/16 11:19:32;;;;;;;35.63;16.17;;;;;;;;;;5041461;28;20052;-89
2023/04/16 11:22:02;;;;;;;32.60;17.00;;;;;;;;;;5025144;28;20040;-89
2023/04/16 11:24:39;;;;;;;29.38;14.52;;;;;;;;;;5040947;28;20050;-89
2023/04/16 11:27:05;;;;;;;25.63;15.60;;;;;;;;;;5042079;28;20047;-90
2023/04/16 11:29:31;;;;;;;36.75;16.55;;;;;;;;;;5043757;28;20149;-89
2023/04/16 11:32:03;;;;;;;36.08;16.98;;;;;;;;;;5041360;28;20057;-88
2023/04/16 11:34:33;;;;;;;33.28;18.02;;;;;;;;;;5040743;28;20121;-89
2023/04/16 11:36:59;;;;;;;34.85;17.38;;;;;;;;;;5037706;28;20106;-89
2023/04/16 11:39:25;;;;;;;31.52;17.52;;;;;;;;;;5037714;28;20136;-89
2023/04/16 11:41:52;;;;;;;27.10;16.17;;;;;;;;;;5020956;28;20053;-88
2023/04/16 11:44:22;;;;;;;30.70;16.38;;;;;;;;;;5038107;28;20051;-89
2023/04/16 11:46:49;;;;;;;31.00;17.42;;;;;;;;;;5036739;28;20037;-89
2023/04/16 11:49:19;;;;;;;31.88;17.13;;;;;;;;;;5037235;28;20066;-90
2023/04/16 11:51:47;;;;;;;29.48;16.55;;;;;;;;;;5021333;28;20507;-90
2023/04/16 11:54:20;;;;;;;31.15;16.20;;;;;;;;;;5036900;28;20049;-90
2023/04/16 11:56:47;;;;;;;30.45;15.60;;;;;;;;;;5039606;22;20342;-90
2023/04/16 11:59:15;;;;;;;28.80;16.35;;;;;;;;;;4981442;28;20046;-90
2023/04/16 12:01:44;;;;;;;25.35;14.73;;;;;;;;;;4981347;28;20379;-90
2023/04/16 12:04:11;;;;;;;26.55;15.18;;;;;;;;;;4981574;28;20158;-90
2023/04/16 12:06:37;;;;;;;28.92;15.25;;;;;;;;;;4965301;28;20081;-90
2023/04/16 12:09:22;;;;;;;29.98;15.10;;;;;;;;;;4996724;28;20414;-91
2023/04/16 12:11:48;;;;;;;29.63;16.13;;;;;;;;;;4980985;28;20153;-90
2023/04/16 12:14:15;;;;;;;31.05;16.73;;;;;;;;;;4980503;28;20502;-91
2023/04/16 12:16:41;;;;;;;29.10;16.33;;;;;;;;;;4980685;28;20038;-91
2023/04/16 12:19:10;;;;;;;32.33;15.07;;;;;;;;;;4980827;28;20046;-90
2023/04/16 12:21:37;;;;;;;33.42;16.00;;;;;;;;;;4980891;28;20049;-90
2023/04/16 12:24:03;;;;;;;27.27;14.30;;;;;;;;;;4963959;28;20081;-91
2023/04/16 12:26:42;;;;;;;21.50;14.02;;;;;;;;;;4980928;28;20046;-90
2023/04/16 12:29:15;;;;;;;33.78;14.40;;;;;;;;;;4980746;28;20390;-90
2023/04/16 12:31:42;;;;;;;27.35;13.70;;;;;;;;;;4964583;28;20126;-90
2023/04/16 12:34:09;;;;;;;29.58;15.15;;;;;;;;;;4979449;28;20410;-91
2023/04/16 12:36:35;;;;;;;25.63;13.52;;;;;;;;;;4980838;28;20510;-90
2023/04/16 12:39:04;;;;;;;28.10;16.58;;;;;;;;;;4980190;28;20383;-90
2023/04/16 12:41:31;;;;;;;39.75;15.73;;;;;;;;;;4980087;28;20045;-90
2023/04/16 12:44:12;;;;;;;26.05;14.13;;;;;;;;;;4980275;28;20498;-90
2023/04/16 12:46:48;;;;;;;29.40;15.20;;;;;;;;;;4980183;28;20367;-90
2023/04/16 12:49:14;;;;;;;25.15;14.77;;;;;;;;;;4964407;28;20041;-90
2023/04/16 12:51:41;;;;;;;25.65;14.88;;;;;;;;;;4980116;28;20044;-90
2023/04/16 12:54:07;;;;;;;21.58;14.27;;;;;;;;;;4980150;28;20513;-90
2023/04/16 12:56:36;;;;;;;27.20;13.75;;;;;;;;;;4963448;28;20034;-90
2023/04/16 12:59:05;;;;;;;21.27;14.50;;;;;;;;;;4980158;28;20060;-90
2023/04/16 13:01:35;;;;;;;23.48;14.82;;;;;;;;;;4979822;28;20038;-90
2023/04/16 13:04:02;;;;;;;23.65;14.32;;;;;;;;;;4979657;28;20052;-90
2023/04/16 13:06:36;;;;;;;27.13;14.20;;;;;;;;;;4996226;28;20053;-90
2023/04/16 13:09:12;;;;;;;26.67;13.88;;;;;;;;;;4979506;28;20049;-90
2023/04/16 13:11:38;;;;;;;21.23;14.95;;;;;;;;;;4979162;28;20054;-90
2023/04/16 13:14:05;;;;;;;23.15;13.60;;;;;;;;;;4979582;28;20569;-90
2023/04/16 13:16:34;;;;;;;28.55;14.75;;;;;;;;;;4979575;28;20046;-90
2023/04/16 13:19:00;;;;;;;24.27;13.77;;;;;;;;;;4979508;28;20038;-89
2023/04/16 13:21:29;;;;;;;23.75;14.27;;;;;;;;;;4979421;28;20046;-90
2023/04/16 13:23:58;;;;;;;21.58;13.68;;;;;;;;;;4979191;28;20049;-90
2023/04/16 13:26:24;;;;;;;27.85;13.40;;;;;;;;;;4979585;28;20069;-90
2023/04/16 13:28:50;;;;;;;23.98;14.70;;;;;;;;;;4979532;28;20042;-90
2023/04/16 13:31:19;;;;;;;21.77;13.80;;;;;;;;;;4978310;28;20041;-90
2023/04/16 13:33:45;;;;;;;21.20;14.60;;;;;;;;;;4994201;28;20057;-90
2023/04/16 13:36:11;;;;;;;32.45;13.85;;;;;;;;;;4994704;28;20129;-90
2023/04/16 13:38:39;;;;;;;25.30;14.35;;;;;;;;;;4962353;28;20053;-90
2023/04/16 13:41:05;;;;;;;25.55;13.52;;;;;;;;;;4978494;28;20050;-90
2023/04/16 13:43:31;;;;;;;21.20;13.63;;;;;;;;;;4978133;28;20521;-89
2023/04/16 13:45:59;;;;;;;26.58;14.50;;;;;;;;;;4978584;28;20050;-89
2023/04/16 13:48:26;;;;;;;27.65;15.85;;;;;;;;;;4978973;28;20057;-91
2023/04/16 13:50:52;;;;;;;23.83;13.80;;;;;;;;;;4978562;28;20048;-89
2023/04/16 13:53:18;;;;;;;20.27;13.05;;;;;;;;;;4978401;28;20434;-90
2023/04/16 13:55:44;;;;;;;30.70;16.48;;;;;;;;;;4978483;28;20041;-90
2023/04/16 13:58:10;;;;;;;23.50;14.73;;;;;;;;;;4962431;28;20160;-90
2023/04/16 14:00:37;;;;;;;27.00;14.07;;;;;;;;;;4978489;28;20557;-90
2023/04/16 14:03:06;;;;;;;21.92;13.68;;;;;;;;;;4978993;28;20115;-92
2023/04/16 14:05:32;;;;;;;26.65;14.98;;;;;;;;;;4978927;28;20065;-90
2023/04/16 14:07:58;;;;;;;29.60;13.45;;;;;;;;;;4978535;28;20494;-91
2023/04/16 14:10:24;;;;;;;28.23;14.45;;;;;;;;;;4978316;28;20069;-91
2023/04/16 14:12:50;;;;;;;30.33;15.00;;;;;;;;;;4978321;28;20083;-91
2023/04/16 14:15:17;;;;;;;26.00;15.07;;;;;;;;;;4962569;28;20513;-92
2023/04/16 14:17:44;;;;;;;22.48;16.00;;;;;;;;;;4978360;28;20136;-92